Ouzinkie, Alaska
Current Conditions -  °F | °C
As of 12:53 AM on Saturday 29 Nov 2014 (Local Time) from PADQ Reporting Station
Light Rain Light Rain  
Wind Chill: 35°   Ceiling: 3800
Heat Index: 35°   Visibility: 6mi
Dew Point: 34°   Wind: 0mph
Humidity: 96%   Direction: NA
Pressure: 30.07"   Gusts: NA
Location:  57.92°N, 152.5°W
Report Text: PADQ 290953Z 00000KT 6SM -RA BR OVC038 02/01 A3007 RMK AO2 SLP185 P0001 T00170011
Loading
Personal Weather Stations






























Interactive Weather Map New forecast layout! Learn more

10-Day Weather Forecast

Advertisements
Track Severe Weather on mobile